createdAt,value
2022-09-18T00:00:57.362Z,12.52
2022-09-18T00:03:24.178Z,12.55
2022-09-18T00:05:50.643Z,12.37
2022-09-18T00:08:17.031Z,12.46
2022-09-18T00:10:46.672Z,12.45
2022-09-18T00:13:14.537Z,12.49
2022-09-18T00:15:41.336Z,12.49
2022-09-18T00:18:08.174Z,12.45
2022-09-18T00:20:36.232Z,12.51
2022-09-18T00:23:02.696Z,12.51
2022-09-18T00:25:29.734Z,12.57
2022-09-18T00:27:56.087Z,12.51
2022-09-18T00:30:22.533Z,12.57
2022-09-18T00:32:48.999Z,12.64
2022-09-18T00:35:15.418Z,12.59
2022-09-18T00:37:41.748Z,12.65
2022-09-18T00:40:08.657Z,12.59
2022-09-18T00:42:35.099Z,12.58
2022-09-18T00:45:01.416Z,12.60
2022-09-18T00:47:36.436Z,12.60
2022-09-18T00:50:15.235Z,12.57
2022-09-18T00:53:03.056Z,12.43
2022-09-18T00:55:33.954Z,12.38
2022-09-18T00:58:02.803Z,12.36
2022-09-18T01:00:31.459Z,12.49
2022-09-18T01:03:01.087Z,12.50
2022-09-18T01:05:46.213Z,12.50
2022-09-18T01:08:36.412Z,12.51
2022-09-18T01:11:17.789Z,12.52
2022-09-18T01:14:11.031Z,12.59
2022-09-18T01:17:10.019Z,12.54
2022-09-18T01:19:54.946Z,12.54
2022-09-18T01:22:46.294Z,12.63
2022-09-18T01:25:33.110Z,12.62
2022-09-18T01:28:25.775Z,12.62
2022-09-18T01:30:57.925Z,12.65
2022-09-18T01:33:42.319Z,12.68
2022-09-18T01:36:14.671Z,12.67
2022-09-18T01:38:48.446Z,12.90
2022-09-18T01:41:21.662Z,12.79
2022-09-18T01:43:57.179Z,12.81
2022-09-18T01:46:25.016Z,12.71
2022-09-18T01:49:03.855Z,12.79
2022-09-18T01:51:38.137Z,12.70
2022-09-18T01:54:10.923Z,12.85
2022-09-18T01:56:43.459Z,12.77
2022-09-18T01:59:15.721Z,12.91
2022-09-18T02:01:44.550Z,13.00
2022-09-18T02:04:18.183Z,12.89
2022-09-18T02:06:57.467Z,13.12
2022-09-18T02:09:24.580Z,12.97
2022-09-18T02:11:54.865Z,12.82
2022-09-18T02:14:25.715Z,12.87
2022-09-18T02:16:57.025Z,12.79
2022-09-18T02:19:28.685Z,12.75
2022-09-18T02:21:58.500Z,12.87
2022-09-18T02:24:29.880Z,12.78
2022-09-18T02:26:57.066Z,12.73
2022-09-18T02:29:24.993Z,12.79
2022-09-18T02:31:52.144Z,12.74
2022-09-18T02:34:19.984Z,12.77
2022-09-18T02:37:11.015Z,12.77
2022-09-18T02:39:50.354Z,12.64
2022-09-18T02:42:32.567Z,12.70
2022-09-18T02:45:11.214Z,12.68
2022-09-18T02:47:59.447Z,12.65
2022-09-18T02:50:47.629Z,12.72
2022-09-18T02:53:22.253Z,12.61
2022-09-18T02:56:19.128Z,12.58
2022-09-18T02:59:02.283Z,12.63
2022-09-18T03:01:29.855Z,12.66
2022-09-18T03:04:03.129Z,12.57
2022-09-18T03:06:29.462Z,12.62
2022-09-18T03:08:55.811Z,12.71
2022-09-18T03:11:22.143Z,12.63
2022-09-18T03:13:48.647Z,12.60
2022-09-18T03:16:15.200Z,12.58
2022-09-18T03:18:41.589Z,12.66
2022-09-18T03:21:07.918Z,12.56
2022-09-18T03:23:34.278Z,12.62
2022-09-18T03:26:00.608Z,12.63
2022-09-18T03:28:26.957Z,12.53
2022-09-18T03:30:53.297Z,12.58
2022-09-18T03:33:19.636Z,12.59
2022-09-18T03:35:45.980Z,12.59
2022-09-18T03:38:12.357Z,12.54
2022-09-18T03:40:38.856Z,12.53
2022-09-18T03:43:05.282Z,12.61
2022-09-18T03:45:31.654Z,12.73
2022-09-18T03:47:58.336Z,12.62
2022-09-18T03:50:24.725Z,12.59
2022-09-18T03:52:51.657Z,12.65
2022-09-18T03:55:18.330Z,12.53
2022-09-18T03:57:46.103Z,12.55
2022-09-18T04:00:14.094Z,12.58
2022-09-18T04:02:40.821Z,12.64
2022-09-18T04:05:07.733Z,12.58
2022-09-18T04:07:34.069Z,12.51
2022-09-18T04:10:00.455Z,12.56
2022-09-18T04:12:27.039Z,12.60
2022-09-18T04:14:53.454Z,12.80
2022-09-18T04:17:19.844Z,12.63
2022-09-18T04:19:49.095Z,12.55
2022-09-18T04:22:19.353Z,12.71
2022-09-18T04:24:46.654Z,12.64
2022-09-18T04:27:12.982Z,12.66
2022-09-18T04:29:39.369Z,12.54
2022-09-18T04:32:05.960Z,12.63
2022-09-18T04:34:32.286Z,12.65
2022-09-18T04:36:58.697Z,12.59
2022-09-18T04:39:25.121Z,12.60
2022-09-18T04:41:51.563Z,12.45
2022-09-18T04:44:17.873Z,12.50
2022-09-18T04:46:44.379Z,12.43
2022-09-18T04:49:10.808Z,12.48
2022-09-18T04:51:37.134Z,12.36
2022-09-18T04:54:03.667Z,12.38
2022-09-18T04:56:30.089Z,12.51
2022-09-18T04:58:56.504Z,12.48
2022-09-18T05:01:23.162Z,12.53
2022-09-18T05:03:49.530Z,12.67
2022-09-18T05:06:15.870Z,12.44
2022-09-18T05:08:42.275Z,12.47
2022-09-18T05:11:08.612Z,12.48
2022-09-18T05:13:34.974Z,12.43
2022-09-18T05:16:01.656Z,12.54
2022-09-18T05:18:27.998Z,12.48
2022-09-18T05:20:55.046Z,12.49
2022-09-18T05:23:21.382Z,12.43
2022-09-18T05:25:47.783Z,12.57
2022-09-18T05:28:15.563Z,12.48
2022-09-18T05:30:41.985Z,12.41
2022-09-18T05:33:10.967Z,12.33
2022-09-18T05:35:39.615Z,12.35
2022-09-18T05:38:06.323Z,12.29
2022-09-18T05:40:36.278Z,12.21
2022-09-18T05:43:03.471Z,12.28
2022-09-18T05:45:30.075Z,12.25
2022-09-18T05:48:01.586Z,12.20
2022-09-18T05:50:28.989Z,12.22
2022-09-18T05:53:05.727Z,12.24
2022-09-18T05:55:33.208Z,12.26
2022-09-18T05:58:00.967Z,12.25
2022-09-18T06:00:29.616Z,12.23
2022-09-18T06:03:04.156Z,12.34
2022-09-18T06:05:32.497Z,12.40
2022-09-18T06:08:00.072Z,12.36
2022-09-18T06:10:27.316Z,12.50
2022-09-18T06:13:03.142Z,12.50
2022-09-18T06:15:29.611Z,12.57
2022-09-18T06:17:56.016Z,12.49
2022-09-18T06:20:22.427Z,12.55
2022-09-18T06:22:48.765Z,12.55
2022-09-18T06:25:18.236Z,12.60
2022-09-18T06:27:44.907Z,12.70
2022-09-18T06:30:11.922Z,12.77
2022-09-18T06:32:38.333Z,12.77
2022-09-18T06:35:05.422Z,12.59
2022-09-18T06:37:31.752Z,12.60
2022-09-18T06:39:58.133Z,12.71
2022-09-18T06:42:24.538Z,12.60
2022-09-18T06:44:50.955Z,12.57
2022-09-18T06:47:17.449Z,12.58
2022-09-18T06:49:43.843Z,12.61
2022-09-18T06:52:10.259Z,12.74
2022-09-18T06:54:36.624Z,12.68
2022-09-18T06:57:02.966Z,12.71
2022-09-18T06:59:29.337Z,12.84
2022-09-18T07:01:55.968Z,12.92
2022-09-18T07:04:22.408Z,12.82
2022-09-18T07:06:48.768Z,12.95
2022-09-18T07:09:15.215Z,12.95
2022-09-18T07:11:41.749Z,12.92
2022-09-18T07:14:08.390Z,12.96
2022-09-18T07:16:35.801Z,13.03
2022-09-18T07:19:02.369Z,13.04
2022-09-18T07:21:29.167Z,13.12
2022-09-18T07:23:55.544Z,13.31
2022-09-18T07:26:22.015Z,13.30
2022-09-18T07:28:48.380Z,13.31
2022-09-18T07:31:14.830Z,13.48
2022-09-18T07:33:41.209Z,13.62
2022-09-18T07:36:07.620Z,13.64
2022-09-18T07:38:34.379Z,13.63
2022-09-18T07:41:04.599Z,13.74
2022-09-18T07:43:31.387Z,13.67
2022-09-18T07:45:57.768Z,13.99
2022-09-18T07:48:24.230Z,13.99
2022-09-18T07:50:50.636Z,14.10
2022-09-18T07:53:18.602Z,14.06
2022-09-18T07:55:47.287Z,14.29
2022-09-18T07:58:14.502Z,14.39
2022-09-18T08:00:40.859Z,14.38
2022-09-18T08:03:12.566Z,14.36
2022-09-18T08:05:40.918Z,14.53
2022-09-18T08:08:15.353Z,14.85
2022-09-18T08:10:43.653Z,14.75
2022-09-18T08:13:10.790Z,14.99
2022-09-18T08:15:40.459Z,14.80
2022-09-18T08:18:07.953Z,14.87
2022-09-18T08:20:35.031Z,14.78
2022-09-18T08:23:06.682Z,14.87
2022-09-18T08:25:33.707Z,14.66
2022-09-18T08:28:01.587Z,14.47
2022-09-18T08:30:29.478Z,14.67
2022-09-18T08:33:03.133Z,14.65
2022-09-18T08:35:30.569Z,14.58
2022-09-18T08:37:57.991Z,14.54
2022-09-18T08:40:45.135Z,14.68
2022-09-18T08:43:27.225Z,14.60
2022-09-18T08:46:00.634Z,14.74
2022-09-18T08:48:35.389Z,14.69
2022-09-18T08:51:30.618Z,14.92
2022-09-18T08:54:10.691Z,15.04
2022-09-18T08:56:37.569Z,14.88
2022-09-18T08:59:11.225Z,15.28
2022-09-18T09:01:51.900Z,14.88
2022-09-18T09:04:25.150Z,15.12
2022-09-18T09:07:04.549Z,15.21
2022-09-18T09:09:53.808Z,14.97
2022-09-18T09:12:47.766Z,15.04
2022-09-18T09:15:21.491Z,14.90
2022-09-18T09:18:16.889Z,15.19
2022-09-18T09:20:56.038Z,15.30
2022-09-18T09:23:37.439Z,15.26
2022-09-18T09:26:10.138Z,15.27
2022-09-18T09:29:13.452Z,15.00
2022-09-18T09:31:44.452Z,15.17
2022-09-18T09:34:20.143Z,15.23
2022-09-18T09:36:49.515Z,15.34
2022-09-18T09:39:28.750Z,15.37
2022-09-18T09:42:03.197Z,15.47
2022-09-18T09:44:44.825Z,15.64
2022-09-18T09:47:35.924Z,15.52
2022-09-18T09:50:16.347Z,15.53
2022-09-18T09:52:49.598Z,15.42
2022-09-18T09:55:29.710Z,15.68
2022-09-18T09:58:22.148Z,15.77
2022-09-18T10:01:10.255Z,15.98
2022-09-18T10:04:15.654Z,15.77
2022-09-18T10:07:17.583Z,15.80
2022-09-18T10:09:50.117Z,15.84
2022-09-18T10:12:42.828Z,15.74
2022-09-18T10:15:26.278Z,15.87
2022-09-18T10:17:56.905Z,15.94
2022-09-18T10:20:28.009Z,16.08
2022-09-18T10:22:58.233Z,16.15
2022-09-18T10:25:39.692Z,15.90
2022-09-18T10:28:06.113Z,16.10
2022-09-18T10:30:32.486Z,16.21
2022-09-18T10:32:59.971Z,16.28
2022-09-18T10:35:35.944Z,16.24
2022-09-18T10:38:02.321Z,16.43
2022-09-18T10:40:32.113Z,16.42
2022-09-18T10:42:59.621Z,16.25
2022-09-18T10:45:41.626Z,16.31
2022-09-18T10:48:16.425Z,16.41
2022-09-18T10:50:57.077Z,16.24
2022-09-18T10:53:29.731Z,16.42
2022-09-18T10:56:03.505Z,16.23
2022-09-18T10:58:31.962Z,16.12
2022-09-18T11:01:07.755Z,15.96
2022-09-18T11:03:39.493Z,15.91
2022-09-18T11:06:15.624Z,16.02
2022-09-18T11:08:49.004Z,16.10
2022-09-18T11:11:35.442Z,16.14
2022-09-18T11:14:19.169Z,16.07
2022-09-18T11:16:52.457Z,16.13
2022-09-18T11:19:29.779Z,16.19
2022-09-18T11:22:01.043Z,16.27
2022-09-18T11:24:29.016Z,16.25
2022-09-18T11:26:57.535Z,16.44
2022-09-18T11:29:39.526Z,16.40
2022-09-18T11:32:29.607Z,16.32
2022-09-18T11:34:58.579Z,16.55
2022-09-18T11:37:35.927Z,16.45
2022-09-18T11:40:27.180Z,16.32
2022-09-18T11:42:54.642Z,16.39
2022-09-18T11:45:39.912Z,16.24
2022-09-18T11:48:39.099Z,16.29
2022-09-18T11:51:15.146Z,16.44
2022-09-18T11:53:44.641Z,16.27
2022-09-18T11:56:43.519Z,16.02
2022-09-18T11:59:23.899Z,16.05
2022-09-18T12:01:55.614Z,16.03
2022-09-18T12:04:43.333Z,16.14
2022-09-18T12:07:40.427Z,16.11
2022-09-18T12:10:28.828Z,16.02
2022-09-18T12:13:17.405Z,16.09
2022-09-18T12:15:52.836Z,15.97
2022-09-18T12:18:28.210Z,16.05
2022-09-18T12:21:01.812Z,16.13
2022-09-18T12:23:28.612Z,16.09
2022-09-18T12:26:06.915Z,16.07
2022-09-18T12:28:44.836Z,16.17
2022-09-18T12:31:28.057Z,16.16
2022-09-18T12:34:08.353Z,16.19
2022-09-18T12:37:00.043Z,16.13
2022-09-18T12:39:33.605Z,16.20
2022-09-18T12:42:27.692Z,16.27
2022-09-18T12:45:18.997Z,16.20
2022-09-18T12:48:04.073Z,16.13
2022-09-18T12:50:36.354Z,16.03
2022-09-18T12:53:18.311Z,15.99
2022-09-18T12:56:26.927Z,15.90
2022-09-18T12:59:09.047Z,16.01
2022-09-18T13:01:45.214Z,16.10
2022-09-18T13:04:26.113Z,16.19
2022-09-18T13:06:58.072Z,16.29
2022-09-18T13:09:31.068Z,16.35
2022-09-18T13:12:05.270Z,16.33
2022-09-18T13:14:44.760Z,16.06
2022-09-18T13:17:19.563Z,16.02
2022-09-18T13:19:55.040Z,16.02
2022-09-18T13:22:24.794Z,15.97
2022-09-18T13:24:54.212Z,15.97
2022-09-18T13:27:23.124Z,15.97
2022-09-18T13:29:59.625Z,15.92
2022-09-18T13:32:36.533Z,15.86
2022-09-18T13:35:12.644Z,15.95
2022-09-18T13:37:39.838Z,15.96
2022-09-18T13:40:27.284Z,16.03
2022-09-18T13:42:54.124Z,15.98
2022-09-18T13:45:25.930Z,15.96
2022-09-18T13:48:20.625Z,15.98
2022-09-18T13:51:05.576Z,15.93
2022-09-18T13:53:41.773Z,16.04
2022-09-18T13:56:13.446Z,16.02
2022-09-18T13:58:54.417Z,15.94
2022-09-18T14:01:40.461Z,15.90
2022-09-18T14:04:42.011Z,16.05
2022-09-18T14:07:17.430Z,15.87
2022-09-18T14:09:48.774Z,15.96
2022-09-18T14:12:16.565Z,16.10
2022-09-18T14:14:55.709Z,16.13
2022-09-18T14:17:22.082Z,16.07
2022-09-18T14:19:59.485Z,16.07
2022-09-18T14:22:30.034Z,15.93
2022-09-18T14:24:59.890Z,16.20
2022-09-18T14:27:35.545Z,16.25
2022-09-18T14:30:19.526Z,16.12
2022-09-18T14:33:03.545Z,16.00
2022-09-18T14:35:38.173Z,15.99
2022-09-18T14:38:27.516Z,16.10
2022-09-18T14:41:08.928Z,16.15
2022-09-18T14:43:39.028Z,16.05
2022-09-18T14:46:06.692Z,16.08
2022-09-18T14:48:38.428Z,16.03
2022-09-18T14:51:07.339Z,15.97
2022-09-18T14:53:44.028Z,15.92
2022-09-18T14:56:15.534Z,15.91
2022-09-18T14:58:45.021Z,15.88
2022-09-18T15:01:25.494Z,15.72
2022-09-18T15:03:54.556Z,15.74
2022-09-18T15:06:59.194Z,15.54
2022-09-18T15:09:29.501Z,15.67
2022-09-18T15:12:02.539Z,15.62
2022-09-18T15:14:29.370Z,15.67
2022-09-18T15:16:57.692Z,15.60
2022-09-18T15:19:24.361Z,15.60
2022-09-18T15:21:51.686Z,15.52
2022-09-18T15:24:18.736Z,15.53
2022-09-18T15:26:56.944Z,15.51
2022-09-18T15:29:31.195Z,15.48
2022-09-18T15:31:58.346Z,15.51
2022-09-18T15:34:33.012Z,15.51
2022-09-18T15:37:02.551Z,15.60
2022-09-18T15:39:32.477Z,15.45
2022-09-18T15:42:38.328Z,15.40
2022-09-18T15:45:07.609Z,15.61
2022-09-18T15:47:37.154Z,15.35
2022-09-18T15:50:12.505Z,15.31
2022-09-18T15:52:42.513Z,15.39
2022-09-18T15:55:22.673Z,15.29
2022-09-18T15:58:00.554Z,15.44
2022-09-18T16:00:30.747Z,15.23
2022-09-18T16:03:01.187Z,15.14
2022-09-18T16:05:30.883Z,15.22
2022-09-18T16:08:01.026Z,15.48
2022-09-18T16:10:33.502Z,15.25
2022-09-18T16:13:15.232Z,15.23
2022-09-18T16:15:47.521Z,15.39
2022-09-18T16:18:29.123Z,15.26
2022-09-18T16:20:57.519Z,15.42
2022-09-18T16:23:32.758Z,15.41
2022-09-18T16:26:14.418Z,15.31
2022-09-18T16:28:56.069Z,15.31
2022-09-18T16:31:26.770Z,15.47
2022-09-18T16:34:03.693Z,15.34
2022-09-18T16:36:32.782Z,15.19
2022-09-18T16:39:01.408Z,15.30
2022-09-18T16:41:29.544Z,15.20
2022-09-18T16:43:56.450Z,15.21
2022-09-18T16:46:31.173Z,15.11
2022-09-18T16:48:57.663Z,15.21
2022-09-18T16:51:24.060Z,15.22
2022-09-18T16:53:50.477Z,15.27
2022-09-18T16:56:25.045Z,15.28
2022-09-18T16:58:52.351Z,15.27
2022-09-18T17:01:23.039Z,15.25
2022-09-18T17:03:51.588Z,15.22
2022-09-18T17:06:19.054Z,15.09
2022-09-18T17:08:46.896Z,15.02
2022-09-18T17:11:13.544Z,15.13
2022-09-18T17:13:39.924Z,15.22
2022-09-18T17:16:06.671Z,15.16
2022-09-18T17:18:34.236Z,15.20
2022-09-18T17:21:02.845Z,14.94
2022-09-18T17:23:30.583Z,14.93
2022-09-18T17:26:05.773Z,14.93
2022-09-18T17:28:32.222Z,14.85
2022-09-18T17:30:58.566Z,14.97
2022-09-18T17:33:24.892Z,14.70
2022-09-18T17:35:51.325Z,14.71
2022-09-18T17:38:17.669Z,14.67
2022-09-18T17:40:55.511Z,14.43
2022-09-18T17:43:21.907Z,14.30
2022-09-18T17:45:54.956Z,14.38
2022-09-18T17:48:22.326Z,14.28
2022-09-18T17:50:48.777Z,14.24
2022-09-18T17:53:15.140Z,14.40
2022-09-18T17:55:44.701Z,14.23
2022-09-18T17:58:11.389Z,14.31
2022-09-18T18:00:38.349Z,14.33
2022-09-18T18:03:04.804Z,14.18
2022-09-18T18:05:31.144Z,14.13
2022-09-18T18:07:57.534Z,14.13
2022-09-18T18:10:24.062Z,14.12
2022-09-18T18:12:50.876Z,14.15
2022-09-18T18:15:18.041Z,14.02
2022-09-18T18:17:44.370Z,14.15
2022-09-18T18:20:10.754Z,14.03
2022-09-18T18:22:37.137Z,14.04
2022-09-18T18:25:03.793Z,14.00
2022-09-18T18:27:30.182Z,13.97
2022-09-18T18:29:56.820Z,13.99
2022-09-18T18:32:23.243Z,13.93
2022-09-18T18:34:50.219Z,13.99
2022-09-18T18:37:17.054Z,13.89
2022-09-18T18:39:43.646Z,13.77
2022-09-18T18:42:09.994Z,14.01
2022-09-18T18:44:36.847Z,13.87
2022-09-18T18:47:04.721Z,13.71
2022-09-18T18:49:31.279Z,13.71
2022-09-18T18:51:58.658Z,13.57
2022-09-18T18:54:25.213Z,13.77
2022-09-18T18:56:51.813Z,14.03
2022-09-18T18:59:19.964Z,13.80
2022-09-18T19:01:47.739Z,13.70
2022-09-18T19:04:16.568Z,13.62
2022-09-18T19:06:44.550Z,13.38
2022-09-18T19:09:20.254Z,13.44
2022-09-18T19:11:49.216Z,13.43
2022-09-18T19:14:25.959Z,13.25
2022-09-18T19:16:54.178Z,13.15
2022-09-18T19:19:23.356Z,13.27
2022-09-18T19:21:50.348Z,13.48
2022-09-18T19:24:18.580Z,13.30
2022-09-18T19:26:46.652Z,13.32
2022-09-18T19:29:15.834Z,13.23
2022-09-18T19:31:44.226Z,13.25
2022-09-18T19:34:16.190Z,13.33
2022-09-18T19:36:46.674Z,13.34
2022-09-18T19:39:13.713Z,13.23
2022-09-18T19:41:46.377Z,13.47
2022-09-18T19:44:15.694Z,13.38
2022-09-18T19:46:42.131Z,13.25
2022-09-18T19:49:17.408Z,13.26
2022-09-18T19:51:44.349Z,13.15
2022-09-18T19:54:10.933Z,13.23
2022-09-18T19:56:43.192Z,13.12
2022-09-18T19:59:10.326Z,13.28
2022-09-18T20:01:36.883Z,13.57
2022-09-18T20:04:03.435Z,13.34
2022-09-18T20:06:32.101Z,13.68
2022-09-18T20:08:59.195Z,13.58
2022-09-18T20:11:26.008Z,13.07
2022-09-18T20:13:52.716Z,12.28
2022-09-18T20:16:19.760Z,12.25
2022-09-18T20:18:47.569Z,11.97
2022-09-18T20:21:16.375Z,12.04
2022-09-18T20:23:43.413Z,11.85
2022-09-18T20:26:12.433Z,11.71
2022-09-18T20:28:38.950Z,11.75
2022-09-18T20:31:07.696Z,11.60
2022-09-18T20:33:34.803Z,11.68
2022-09-18T20:36:01.868Z,11.66
2022-09-18T20:38:32.251Z,11.53
2022-09-18T20:41:03.750Z,11.80
2022-09-18T20:43:33.073Z,11.83
2022-09-18T20:46:01.862Z,11.66
2022-09-18T20:48:36.662Z,11.81
2022-09-18T20:51:08.975Z,11.75
2022-09-18T20:53:38.220Z,11.77
2022-09-18T20:56:10.026Z,11.86
2022-09-18T20:58:37.726Z,11.81
2022-09-18T21:01:12.615Z,12.10
2022-09-18T21:03:42.350Z,12.06
2022-09-18T21:06:22.511Z,12.13
2022-09-18T21:08:53.306Z,11.81
2022-09-18T21:11:26.020Z,11.67
2022-09-18T21:13:55.676Z,11.61
2022-09-18T21:16:25.048Z,11.43
2022-09-18T21:18:53.812Z,11.56
2022-09-18T21:21:20.345Z,11.33
2022-09-18T21:24:02.456Z,11.23
2022-09-18T21:26:44.058Z,11.30
2022-09-18T21:29:13.353Z,11.23
2022-09-18T21:31:44.654Z,11.16
2022-09-18T21:34:13.999Z,11.19
2022-09-18T21:36:43.312Z,11.25
2022-09-18T21:39:14.370Z,11.54
2022-09-18T21:41:45.825Z,11.52
2022-09-18T21:44:17.801Z,11.80
2022-09-18T21:46:45.597Z,11.67
2022-09-18T21:49:12.870Z,11.51
2022-09-18T21:51:42.140Z,11.37
2022-09-18T21:54:15.100Z,11.10
2022-09-18T21:56:43.047Z,11.08
2022-09-18T21:59:10.323Z,11.00
2022-09-18T22:01:38.106Z,11.01
2022-09-18T22:04:07.178Z,10.86
2022-09-18T22:06:43.251Z,10.78
2022-09-18T22:09:15.637Z,10.61
2022-09-18T22:11:43.348Z,10.65
2022-09-18T22:14:13.071Z,10.64
2022-09-18T22:16:39.943Z,10.56
2022-09-18T22:19:08.283Z,10.52
2022-09-18T22:21:37.143Z,10.54
2022-09-18T22:24:12.104Z,10.36
2022-09-18T22:26:41.488Z,10.06
2022-09-18T22:29:15.162Z,9.94
2022-09-18T22:31:42.561Z,9.91
2022-09-18T22:34:08.914Z,9.77
2022-09-18T22:36:35.267Z,9.66
2022-09-18T22:39:01.601Z,9.49
2022-09-18T22:41:28.002Z,9.58
2022-09-18T22:43:56.259Z,9.38
2022-09-18T22:46:25.116Z,9.56
2022-09-18T22:48:52.080Z,9.58
2022-09-18T22:51:21.268Z,9.46
2022-09-18T22:53:50.199Z,9.74
2022-09-18T22:56:17.588Z,9.61
2022-09-18T22:58:44.708Z,9.48
2022-09-18T23:01:21.341Z,9.64
2022-09-18T23:03:49.871Z,9.67
2022-09-18T23:06:17.220Z,9.42
2022-09-18T23:08:44.741Z,9.50
2022-09-18T23:11:14.183Z,9.51
2022-09-18T23:13:49.446Z,9.69
2022-09-18T23:16:16.425Z,9.78
2022-09-18T23:18:48.224Z,9.76
2022-09-18T23:21:14.822Z,9.70
2022-09-18T23:23:43.342Z,9.63
2022-09-18T23:26:24.597Z,9.54
2022-09-18T23:28:53.755Z,9.54
2022-09-18T23:31:22.775Z,9.54
2022-09-18T23:33:51.969Z,9.47
2022-09-18T23:36:24.717Z,9.49
2022-09-18T23:38:56.188Z,9.40
2022-09-18T23:41:22.934Z,9.44
2022-09-18T23:43:50.961Z,9.55
2022-09-18T23:46:18.090Z,9.69
2022-09-18T23:48:45.547Z,9.66
2022-09-18T23:51:12.305Z,9.51
2022-09-18T23:53:40.614Z,9.58
2022-09-18T23:56:10.840Z,9.80
2022-09-18T23:58:38.750Z,9.85
